sensor_id;sensor_type;location;lat;lon;timestamp;temperature;humidity
20777;DHT22;10548;47.504;8.248;2023-03-20T00:02:04;8.00;99.90
20777;DHT22;10548;47.504;8.248;2023-03-20T00:04:32;8.10;99.90
20777;DHT22;10548;47.504;8.248;2023-03-20T00:07:00;8.10;99.90
20777;DHT22;10548;47.504;8.248;2023-03-20T00:09:27;8.10;99.90
20777;DHT22;10548;47.504;8.248;2023-03-20T00:11:54;8.10;99.90
20777;DHT22;10548;47.504;8.248;2023-03-20T00:14:22;8.20;99.90
20777;DHT22;10548;47.504;8.248;2023-03-20T00:16:51;8.20;99.90
20777;DHT22;10548;47.504;8.248;2023-03-20T00:19:21;8.30;99.90
20777;DHT22;10548;47.504;8.248;2023-03-20T00:21:55;8.20;99.90
20777;DHT22;10548;47.504;8.248;2023-03-20T00:24:23;8.30;99.90
20777;DHT22;10548;47.504;8.248;2023-03-20T00:26:52;8.30;99.90
20777;DHT22;10548;47.504;8.248;2023-03-20T00:29:28;8.30;99.90
20777;DHT22;10548;47.504;8.248;2023-03-20T00:31:57;8.40;99.90
20777;DHT22;10548;47.504;8.248;2023-03-20T00:34:27;8.30;99.90
20777;DHT22;10548;47.504;8.248;2023-03-20T00:36:55;8.20;99.90
20777;DHT22;10548;47.504;8.248;2023-03-20T00:39:24;8.20;99.90
20777;DHT22;10548;47.504;8.248;2023-03-20T00:41:59;8.30;99.90
20777;DHT22;10548;47.504;8.248;2023-03-20T00:44:49;8.30;99.90
20777;DHT22;10548;47.504;8.248;2023-03-20T00:47:23;8.30;99.90
20777;DHT22;10548;47.504;8.248;2023-03-20T00:49:51;8.40;99.90
20777;DHT22;10548;47.504;8.248;2023-03-20T00:52:20;8.30;99.90
20777;DHT22;10548;47.504;8.248;2023-03-20T00:54:50;8.30;99.90
20777;DHT22;10548;47.504;8.248;2023-03-20T00:57:36;8.30;99.90
20777;DHT22;10548;47.504;8.248;2023-03-20T01:00:07;8.40;99.90
20777;DHT22;10548;47.504;8.248;2023-03-20T01:02:43;8.40;99.90
20777;DHT22;10548;47.504;8.248;2023-03-20T01:05:11;8.30;99.90
20777;DHT22;10548;47.504;8.248;2023-03-20T01:07:38;8.30;99.90
20777;DHT22;10548;47.504;8.248;2023-03-20T01:10:06;8.40;99.90
20777;DHT22;10548;47.504;8.248;2023-03-20T01:12:34;8.30;99.90
20777;DHT22;10548;47.504;8.248;2023-03-20T01:15:01;8.30;99.90
20777;DHT22;10548;47.504;8.248;2023-03-20T01:17:28;8.20;99.90
20777;DHT22;10548;47.504;8.248;2023-03-20T01:19:56;8.30;99.90
20777;DHT22;10548;47.504;8.248;2023-03-20T01:22:23;8.30;99.90
20777;DHT22;10548;47.504;8.248;2023-03-20T01:24:51;8.20;99.90
20777;DHT22;10548;47.504;8.248;2023-03-20T01:27:19;8.00;99.90
20777;DHT22;10548;47.504;8.248;2023-03-20T01:29:46;8.00;99.90
20777;DHT22;10548;47.504;8.248;2023-03-20T01:32:18;8.10;99.90
20777;DHT22;10548;47.504;8.248;2023-03-20T01:34:50;8.10;99.90
20777;DHT22;10548;47.504;8.248;2023-03-20T01:37:26;8.20;99.90
20777;DHT22;10548;47.504;8.248;2023-03-20T01:39:58;8.30;99.90
20777;DHT22;10548;47.504;8.248;2023-03-20T01:42:26;8.30;99.90
20777;DHT22;10548;47.504;8.248;2023-03-20T01:44:54;8.30;99.90
20777;DHT22;10548;47.504;8.248;2023-03-20T01:47:23;8.30;99.90
20777;DHT22;10548;47.504;8.248;2023-03-20T01:53:27;8.30;99.90
20777;DHT22;10548;47.504;8.248;2023-03-20T01:55:59;8.20;99.90
20777;DHT22;10548;47.504;8.248;2023-03-20T01:58:45;8.20;99.90
20777;DHT22;10548;47.504;8.248;2023-03-20T02:01:14;8.30;99.90
20777;DHT22;10548;47.504;8.248;2023-03-20T02:03:47;8.20;99.90
20777;DHT22;10548;47.504;8.248;2023-03-20T02:06:42;8.20;99.90
20777;DHT22;10548;47.504;8.248;2023-03-20T02:09:22;8.20;99.90
20777;DHT22;10548;47.504;8.248;2023-03-20T02:11:50;8.20;99.90
20777;DHT22;10548;47.504;8.248;2023-03-20T02:14:19;8.10;99.90
20777;DHT22;10548;47.504;8.248;2023-03-20T02:16:59;8.10;99.90
20777;DHT22;10548;47.504;8.248;2023-03-20T02:20:09;8.10;99.90
20777;DHT22;10548;47.504;8.248;2023-03-20T02:29:41;8.30;99.90
20777;DHT22;10548;47.504;8.248;2023-03-20T02:33:10;8.30;99.90
20777;DHT22;10548;47.504;8.248;2023-03-20T02:39:06;8.20;99.90
20777;DHT22;10548;47.504;8.248;2023-03-20T02:41:42;8.10;99.90
20777;DHT22;10548;47.504;8.248;2023-03-20T02:44:25;8.10;99.90
20777;DHT22;10548;47.504;8.248;2023-03-20T02:47:40;8.00;99.90
20777;DHT22;10548;47.504;8.248;2023-03-20T02:50:17;8.00;99.90
20777;DHT22;10548;47.504;8.248;2023-03-20T02:56:11;8.10;99.90
20777;DHT22;10548;47.504;8.248;2023-03-20T02:59:01;7.90;99.90
20777;DHT22;10548;47.504;8.248;2023-03-20T03:01:40;7.90;99.90
20777;DHT22;10548;47.504;8.248;2023-03-20T03:04:23;8.00;99.90
20777;DHT22;10548;47.504;8.248;2023-03-20T03:06:53;8.10;99.90
20777;DHT22;10548;47.504;8.248;2023-03-20T03:09:29;8.20;99.90
20777;DHT22;10548;47.504;8.248;2023-03-20T03:12:17;8.20;99.90
20777;DHT22;10548;47.504;8.248;2023-03-20T03:14:58;8.10;99.90
20777;DHT22;10548;47.504;8.248;2023-03-20T03:17:30;8.10;99.90
20777;DHT22;10548;47.504;8.248;2023-03-20T03:20:03;8.00;99.90
20777;DHT22;10548;47.504;8.248;2023-03-20T03:22:32;8.10;99.90
20777;DHT22;10548;47.504;8.248;2023-03-20T03:25:00;8.10;99.90
20777;DHT22;10548;47.504;8.248;2023-03-20T03:27:37;8.00;99.90
20777;DHT22;10548;47.504;8.248;2023-03-20T03:30:15;8.10;99.90
20777;DHT22;10548;47.504;8.248;2023-03-20T03:39:50;8.00;99.90
20777;DHT22;10548;47.504;8.248;2023-03-20T03:42:37;8.10;99.90
20777;DHT22;10548;47.504;8.248;2023-03-20T03:45:15;8.10;99.90
20777;DHT22;10548;47.504;8.248;2023-03-20T03:47:51;8.10;99.90
20777;DHT22;10548;47.504;8.248;2023-03-20T03:50:29;8.10;99.90
20777;DHT22;10548;47.504;8.248;2023-03-20T03:53:01;8.10;99.90
20777;DHT22;10548;47.504;8.248;2023-03-20T03:55:34;8.20;99.90
20777;DHT22;10548;47.504;8.248;2023-03-20T03:58:19;8.10;99.90
20777;DHT22;10548;47.504;8.248;2023-03-20T04:00:51;8.20;99.90
20777;DHT22;10548;47.504;8.248;2023-03-20T04:03:24;8.10;99.90
20777;DHT22;10548;47.504;8.248;2023-03-20T04:05:56;8.20;99.90
20777;DHT22;10548;47.504;8.248;2023-03-20T04:08:25;8.20;99.90
20777;DHT22;10548;47.504;8.248;2023-03-20T04:10:53;8.20;99.90
20777;DHT22;10548;47.504;8.248;2023-03-20T04:13:20;8.30;99.90
20777;DHT22;10548;47.504;8.248;2023-03-20T04:15:47;8.30;99.90
20777;DHT22;10548;47.504;8.248;2023-03-20T04:18:16;8.30;99.90
20777;DHT22;10548;47.504;8.248;2023-03-20T04:20:45;8.20;99.90
20777;DHT22;10548;47.504;8.248;2023-03-20T04:23:13;8.20;99.90
20777;DHT22;10548;47.504;8.248;2023-03-20T04:25:41;8.20;99.90
20777;DHT22;10548;47.504;8.248;2023-03-20T04:28:08;8.20;99.90
20777;DHT22;10548;47.504;8.248;2023-03-20T04:31:01;8.30;99.90
20777;DHT22;10548;47.504;8.248;2023-03-20T04:33:36;8.20;99.90
20777;DHT22;10548;47.504;8.248;2023-03-20T04:36:23;8.20;99.90
20777;DHT22;10548;47.504;8.248;2023-03-20T04:38:52;8.20;99.90
20777;DHT22;10548;47.504;8.248;2023-03-20T04:41:24;8.20;99.90
20777;DHT22;10548;47.504;8.248;2023-03-20T04:43:54;8.10;99.90
20777;DHT22;10548;47.504;8.248;2023-03-20T04:46:22;8.00;99.90
20777;DHT22;10548;47.504;8.248;2023-03-20T04:48:49;8.00;99.90
20777;DHT22;10548;47.504;8.248;2023-03-20T04:51:18;8.00;99.90
20777;DHT22;10548;47.504;8.248;2023-03-20T04:53:50;8.10;99.90
20777;DHT22;10548;47.504;8.248;2023-03-20T04:56:17;8.10;99.90
20777;DHT22;10548;47.504;8.248;2023-03-20T04:58:45;8.10;99.90
20777;DHT22;10548;47.504;8.248;2023-03-20T05:01:13;8.10;99.90
20777;DHT22;10548;47.504;8.248;2023-03-20T05:03:40;8.10;99.90
20777;DHT22;10548;47.504;8.248;2023-03-20T05:06:09;8.10;99.90
20777;DHT22;10548;47.504;8.248;2023-03-20T05:08:40;8.00;99.90
20777;DHT22;10548;47.504;8.248;2023-03-20T05:11:07;8.00;99.90
20777;DHT22;10548;47.504;8.248;2023-03-20T05:14:12;8.00;99.90
20777;DHT22;10548;47.504;8.248;2023-03-20T05:17:04;8.00;99.90
20777;DHT22;10548;47.504;8.248;2023-03-20T05:20:04;8.00;99.90
20777;DHT22;10548;47.504;8.248;2023-03-20T05:22:39;8.10;99.90
20777;DHT22;10548;47.504;8.248;2023-03-20T05:25:11;8.00;99.90
20777;DHT22;10548;47.504;8.248;2023-03-20T05:27:58;8.10;99.90
20777;DHT22;10548;47.504;8.248;2023-03-20T05:30:48;8.10;99.90
20777;DHT22;10548;47.504;8.248;2023-03-20T05:33:34;8.00;99.90
20777;DHT22;10548;47.504;8.248;2023-03-20T05:36:24;8.00;99.90
20777;DHT22;10548;47.504;8.248;2023-03-20T05:38:55;8.00;99.90
20777;DHT22;10548;47.504;8.248;2023-03-20T05:41:35;8.10;99.90
20777;DHT22;10548;47.504;8.248;2023-03-20T05:44:22;8.20;99.90
20777;DHT22;10548;47.504;8.248;2023-03-20T05:46:58;8.20;99.90
20777;DHT22;10548;47.504;8.248;2023-03-20T05:49:51;8.20;99.90
20777;DHT22;10548;47.504;8.248;2023-03-20T05:52:25;8.20;99.90
20777;DHT22;10548;47.504;8.248;2023-03-20T05:55:18;8.20;99.90
20777;DHT22;10548;47.504;8.248;2023-03-20T05:58:06;8.20;99.90
20777;DHT22;10548;47.504;8.248;2023-03-20T06:00:56;8.30;99.90
20777;DHT22;10548;47.504;8.248;2023-03-20T06:03:43;8.40;99.90
20777;DHT22;10548;47.504;8.248;2023-03-20T06:06:16;8.40;99.90
20777;DHT22;10548;47.504;8.248;2023-03-20T06:08:48;8.40;99.90
20777;DHT22;10548;47.504;8.248;2023-03-20T06:11:15;8.40;99.90
20777;DHT22;10548;47.504;8.248;2023-03-20T06:13:43;8.40;99.90
20777;DHT22;10548;47.504;8.248;2023-03-20T06:16:11;8.50;99.90
20777;DHT22;10548;47.504;8.248;2023-03-20T06:18:38;8.60;99.90
20777;DHT22;10548;47.504;8.248;2023-03-20T06:21:07;8.50;99.90
20777;DHT22;10548;47.504;8.248;2023-03-20T06:23:35;8.60;99.90
20777;DHT22;10548;47.504;8.248;2023-03-20T06:26:03;8.60;99.90
20777;DHT22;10548;47.504;8.248;2023-03-20T06:28:43;8.50;99.90
20777;DHT22;10548;47.504;8.248;2023-03-20T06:31:10;8.40;99.90
20777;DHT22;10548;47.504;8.248;2023-03-20T06:33:38;8.50;99.90
20777;DHT22;10548;47.504;8.248;2023-03-20T06:36:08;8.40;99.90
20777;DHT22;10548;47.504;8.248;2023-03-20T06:38:36;8.40;99.90
20777;DHT22;10548;47.504;8.248;2023-03-20T06:41:09;8.50;99.90
20777;DHT22;10548;47.504;8.248;2023-03-20T06:43:45;8.70;99.90
20777;DHT22;10548;47.504;8.248;2023-03-20T06:46:13;8.70;99.90
20777;DHT22;10548;47.504;8.248;2023-03-20T06:48:40;8.80;99.90
20777;DHT22;10548;47.504;8.248;2023-03-20T06:51:07;9.10;99.90
20777;DHT22;10548;47.504;8.248;2023-03-20T06:53:44;9.00;99.90
20777;DHT22;10548;47.504;8.248;2023-03-20T06:56:17;9.10;99.90
20777;DHT22;10548;47.504;8.248;2023-03-20T06:58:45;9.20;99.90
20777;DHT22;10548;47.504;8.248;2023-03-20T07:01:14;9.30;99.90
20777;DHT22;10548;47.504;8.248;2023-03-20T07:03:43;9.50;99.90
20777;DHT22;10548;47.504;8.248;2023-03-20T07:06:11;9.50;99.90
20777;DHT22;10548;47.504;8.248;2023-03-20T07:08:39;9.30;99.90
20777;DHT22;10548;47.504;8.248;2023-03-20T07:11:06;9.20;99.90
20777;DHT22;10548;47.504;8.248;2023-03-20T07:13:35;9.20;99.90
20777;DHT22;10548;47.504;8.248;2023-03-20T07:16:14;9.20;99.90
20777;DHT22;10548;47.504;8.248;2023-03-20T07:18:42;9.40;99.90
20777;DHT22;10548;47.504;8.248;2023-03-20T07:21:10;9.50;99.90
20777;DHT22;10548;47.504;8.248;2023-03-20T07:23:42;9.70;99.90
20777;DHT22;10548;47.504;8.248;2023-03-20T07:26:09;9.90;99.90
20777;DHT22;10548;47.504;8.248;2023-03-20T07:28:37;9.80;99.90
20777;DHT22;10548;47.504;8.248;2023-03-20T07:31:30;9.80;99.90
20777;DHT22;10548;47.504;8.248;2023-03-20T07:34:11;9.90;99.90
20777;DHT22;10548;47.504;8.248;2023-03-20T07:36:40;10.00;99.90
20777;DHT22;10548;47.504;8.248;2023-03-20T07:39:14;9.90;99.90
20777;DHT22;10548;47.504;8.248;2023-03-20T07:41:50;9.90;99.90
20777;DHT22;10548;47.504;8.248;2023-03-20T07:44:33;10.10;99.90
20777;DHT22;10548;47.504;8.248;2023-03-20T07:47:07;10.10;99.90
20777;DHT22;10548;47.504;8.248;2023-03-20T07:49:35;10.20;99.90
20777;DHT22;10548;47.504;8.248;2023-03-20T07:52:02;10.10;99.90
20777;DHT22;10548;47.504;8.248;2023-03-20T07:54:30;9.90;99.90
20777;DHT22;10548;47.504;8.248;2023-03-20T07:56:57;10.00;99.90
20777;DHT22;10548;47.504;8.248;2023-03-20T07:59:25;10.30;99.90
20777;DHT22;10548;47.504;8.248;2023-03-20T08:01:52;10.70;99.90
20777;DHT22;10548;47.504;8.248;2023-03-20T08:04:19;10.80;99.90
20777;DHT22;10548;47.504;8.248;2023-03-20T08:06:48;10.90;99.90
20777;DHT22;10548;47.504;8.248;2023-03-20T08:09:16;10.70;99.90
20777;DHT22;10548;47.504;8.248;2023-03-20T08:11:44;11.10;99.90
20777;DHT22;10548;47.504;8.248;2023-03-20T08:14:12;11.00;99.90
20777;DHT22;10548;47.504;8.248;2023-03-20T08:16:39;11.30;99.90
20777;DHT22;10548;47.504;8.248;2023-03-20T08:19:06;11.50;99.90
20777;DHT22;10548;47.504;8.248;2023-03-20T08:21:34;11.40;99.90
20777;DHT22;10548;47.504;8.248;2023-03-20T08:24:01;11.40;99.90
20777;DHT22;10548;47.504;8.248;2023-03-20T08:26:28;11.60;99.90
20777;DHT22;10548;47.504;8.248;2023-03-20T08:28:55;11.70;99.90
20777;DHT22;10548;47.504;8.248;2023-03-20T08:31:23;11.40;99.90
20777;DHT22;10548;47.504;8.248;2023-03-20T08:33:50;12.00;99.90
20777;DHT22;10548;47.504;8.248;2023-03-20T08:36:18;11.50;99.90
20777;DHT22;10548;47.504;8.248;2023-03-20T08:38:48;11.10;99.90
20777;DHT22;10548;47.504;8.248;2023-03-20T08:41:17;10.90;99.90
20777;DHT22;10548;47.504;8.248;2023-03-20T08:43:44;10.90;99.90
20777;DHT22;10548;47.504;8.248;2023-03-20T08:46:12;10.80;99.90
20777;DHT22;10548;47.504;8.248;2023-03-20T08:48:39;11.00;99.90
20777;DHT22;10548;47.504;8.248;2023-03-20T08:51:07;11.10;99.90
20777;DHT22;10548;47.504;8.248;2023-03-20T08:53:34;11.00;99.90
20777;DHT22;10548;47.504;8.248;2023-03-20T08:56:02;11.00;99.90
20777;DHT22;10548;47.504;8.248;2023-03-20T08:58:29;10.80;99.90
20777;DHT22;10548;47.504;8.248;2023-03-20T09:00:56;10.90;99.90
20777;DHT22;10548;47.504;8.248;2023-03-20T09:03:26;11.10;99.90
20777;DHT22;10548;47.504;8.248;2023-03-20T09:05:53;11.20;99.90
20777;DHT22;10548;47.504;8.248;2023-03-20T09:08:20;11.40;99.90
20777;DHT22;10548;47.504;8.248;2023-03-20T09:10:47;11.60;99.90
20777;DHT22;10548;47.504;8.248;2023-03-20T09:13:17;11.70;99.90
20777;DHT22;10548;47.504;8.248;2023-03-20T09:15:54;11.90;99.90
20777;DHT22;10548;47.504;8.248;2023-03-20T09:18:22;11.90;99.90
20777;DHT22;10548;47.504;8.248;2023-03-20T09:20:50;11.70;99.90
20777;DHT22;10548;47.504;8.248;2023-03-20T09:23:17;12.40;99.90
20777;DHT22;10548;47.504;8.248;2023-03-20T09:25:46;13.30;99.80
20777;DHT22;10548;47.504;8.248;2023-03-20T09:28:13;13.30;97.10
20777;DHT22;10548;47.504;8.248;2023-03-20T09:30:40;12.90;96.50
20777;DHT22;10548;47.504;8.248;2023-03-20T09:33:09;12.30;94.20
20777;DHT22;10548;47.504;8.248;2023-03-20T09:35:37;11.90;95.40
20777;DHT22;10548;47.504;8.248;2023-03-20T09:38:04;11.90;97.80
20777;DHT22;10548;47.504;8.248;2023-03-20T09:40:56;11.80;96.50
20777;DHT22;10548;47.504;8.248;2023-03-20T09:44:07;12.00;96.10
20777;DHT22;10548;47.504;8.248;2023-03-20T09:50:17;12.20;95.30
20777;DHT22;10548;47.504;8.248;2023-03-20T09:53:17;12.10;92.80
20777;DHT22;10548;47.504;8.248;2023-03-20T09:55:47;12.20;91.80
20777;DHT22;10548;47.504;8.248;2023-03-20T09:58:27;12.00;94.60
20777;DHT22;10548;47.504;8.248;2023-03-20T10:00:58;12.40;90.20
20777;DHT22;10548;47.504;8.248;2023-03-20T10:03:38;12.40;94.00
20777;DHT22;10548;47.504;8.248;2023-03-20T10:06:13;12.10;94.50
20777;DHT22;10548;47.504;8.248;2023-03-20T10:08:46;12.30;94.60
20777;DHT22;10548;47.504;8.248;2023-03-20T10:11:48;12.40;94.40
20777;DHT22;10548;47.504;8.248;2023-03-20T10:14:34;12.50;93.10
20777;DHT22;10548;47.504;8.248;2023-03-20T10:23:54;12.90;90.20
20777;DHT22;10548;47.504;8.248;2023-03-20T10:26:19;13.10;83.10
20777;DHT22;10548;47.504;8.248;2023-03-20T10:28:57;13.10;83.80
20777;DHT22;10548;47.504;8.248;2023-03-20T10:33:37;13.30;77.60
20777;DHT22;10548;47.504;8.248;2023-03-20T10:35:16;13.10;74.00
20777;DHT22;10548;47.504;8.248;2023-03-20T10:38:00;13.20;71.50
20777;DHT22;10548;47.504;8.248;2023-03-20T10:40:34;13.10;70.40
20777;DHT22;10548;47.504;8.248;2023-03-20T10:43:48;13.50;66.80
20777;DHT22;10548;47.504;8.248;2023-03-20T10:46:14;13.40;69.70
20777;DHT22;10548;47.504;8.248;2023-03-20T10:48:55;13.90;74.30
20777;DHT22;10548;47.504;8.248;2023-03-20T10:51:36;14.00;75.50
20777;DHT22;10548;47.504;8.248;2023-03-20T10:54:11;13.80;75.60
20777;DHT22;10548;47.504;8.248;2023-03-20T10:56:45;13.80;76.00
20777;DHT22;10548;47.504;8.248;2023-03-20T10:59:49;13.40;72.20
20777;DHT22;10548;47.504;8.248;2023-03-20T11:02:19;13.30;75.20
20777;DHT22;10548;47.504;8.248;2023-03-20T11:04:47;13.40;75.80
20777;DHT22;10548;47.504;8.248;2023-03-20T11:07:34;13.60;70.10
20777;DHT22;10548;47.504;8.248;2023-03-20T11:10:10;13.40;68.50
20777;DHT22;10548;47.504;8.248;2023-03-20T11:12:40;13.00;70.10
20777;DHT22;10548;47.504;8.248;2023-03-20T11:15:30;13.10;71.00
20777;DHT22;10548;47.504;8.248;2023-03-20T11:18:04;12.80;75.10
20777;DHT22;10548;47.504;8.248;2023-03-20T11:20:37;13.00;74.10
20777;DHT22;10548;47.504;8.248;2023-03-20T11:23:06;13.00;72.90
20777;DHT22;10548;47.504;8.248;2023-03-20T11:25:37;13.10;74.90
20777;DHT22;10548;47.504;8.248;2023-03-20T11:28:38;13.50;73.20
20777;DHT22;10548;47.504;8.248;2023-03-20T11:34:35;13.40;73.00
20777;DHT22;10548;47.504;8.248;2023-03-20T11:37:17;14.00;74.50
20777;DHT22;10548;47.504;8.248;2023-03-20T11:39:59;15.00;68.40
20777;DHT22;10548;47.504;8.248;2023-03-20T11:42:29;15.40;61.50
20777;DHT22;10548;47.504;8.248;2023-03-20T11:45:04;15.00;61.20
20777;DHT22;10548;47.504;8.248;2023-03-20T11:47:33;14.60;60.70
20777;DHT22;10548;47.504;8.248;2023-03-20T11:50:04;14.20;63.70
20777;DHT22;10548;47.504;8.248;2023-03-20T11:52:37;13.60;69.80
20777;DHT22;10548;47.504;8.248;2023-03-20T11:55:22;13.80;71.40
20777;DHT22;10548;47.504;8.248;2023-03-20T11:57:55;13.50;71.70
20777;DHT22;10548;47.504;8.248;2023-03-20T12:00:27;13.80;71.00
20777;DHT22;10548;47.504;8.248;2023-03-20T12:02:55;13.80;72.10
20777;DHT22;10548;47.504;8.248;2023-03-20T12:05:43;14.10;71.90
20777;DHT22;10548;47.504;8.248;2023-03-20T12:08:22;14.40;68.30
20777;DHT22;10548;47.504;8.248;2023-03-20T12:10:57;14.50;66.40
20777;DHT22;10548;47.504;8.248;2023-03-20T12:13:32;14.70;68.00
20777;DHT22;10548;47.504;8.248;2023-03-20T12:16:04;14.80;66.00
20777;DHT22;10548;47.504;8.248;2023-03-20T12:18:37;14.70;66.60
20777;DHT22;10548;47.504;8.248;2023-03-20T12:21:39;14.50;64.20
20777;DHT22;10548;47.504;8.248;2023-03-20T12:24:36;14.50;65.40
20777;DHT22;10548;47.504;8.248;2023-03-20T12:27:20;14.20;63.60
20777;DHT22;10548;47.504;8.248;2023-03-20T12:29:57;13.80;66.90
20777;DHT22;10548;47.504;8.248;2023-03-20T12:32:39;13.50;67.80
20777;DHT22;10548;47.504;8.248;2023-03-20T12:35:21;13.50;66.00
20777;DHT22;10548;47.504;8.248;2023-03-20T12:37:51;13.40;64.70
20777;DHT22;10548;47.504;8.248;2023-03-20T12:40:20;13.50;67.00
20777;DHT22;10548;47.504;8.248;2023-03-20T12:43:14;14.30;66.50
20777;DHT22;10548;47.504;8.248;2023-03-20T12:46:06;15.10;62.00
20777;DHT22;10548;47.504;8.248;2023-03-20T12:48:47;15.30;65.50
20777;DHT22;10548;47.504;8.248;2023-03-20T12:51:41;15.70;64.10
20777;DHT22;10548;47.504;8.248;2023-03-20T12:54:42;16.20;57.80
20777;DHT22;10548;47.504;8.248;2023-03-20T12:57:46;16.70;57.00
20777;DHT22;10548;47.504;8.248;2023-03-20T13:00:23;16.60;56.10
20777;DHT22;10548;47.504;8.248;2023-03-20T13:03:27;16.50;54.60
20777;DHT22;10548;47.504;8.248;2023-03-20T13:06:13;16.20;54.70
20777;DHT22;10548;47.504;8.248;2023-03-20T13:09:07;16.10;53.40
20777;DHT22;10548;47.504;8.248;2023-03-20T13:13:15;15.90;53.20
20777;DHT22;10548;47.504;8.248;2023-03-20T13:14:46;15.70;54.20
20777;DHT22;10548;47.504;8.248;2023-03-20T13:17:23;14.90;54.30
20777;DHT22;10548;47.504;8.248;2023-03-20T13:20:25;14.70;55.80
20777;DHT22;10548;47.504;8.248;2023-03-20T13:23:08;15.00;54.80
20777;DHT22;10548;47.504;8.248;2023-03-20T13:26:40;15.00;53.50
20777;DHT22;10548;47.504;8.248;2023-03-20T13:29:05;14.80;55.60
20777;DHT22;10548;47.504;8.248;2023-03-20T13:35:16;14.90;56.00
20777;DHT22;10548;47.504;8.248;2023-03-20T13:37:53;15.10;54.40
20777;DHT22;10548;47.504;8.248;2023-03-20T13:40:29;14.70;54.30
20777;DHT22;10548;47.504;8.248;2023-03-20T13:43:20;14.90;55.30
20777;DHT22;10548;47.504;8.248;2023-03-20T13:46:03;15.10;58.10
20777;DHT22;10548;47.504;8.248;2023-03-20T13:48:36;15.00;57.40
20777;DHT22;10548;47.504;8.248;2023-03-20T13:51:35;14.70;57.50
20777;DHT22;10548;47.504;8.248;2023-03-20T13:54:36;14.70;56.40
20777;DHT22;10548;47.504;8.248;2023-03-20T14:00:50;15.00;54.40
20777;DHT22;10548;47.504;8.248;2023-03-20T14:03:35;15.30;54.50
20777;DHT22;10548;47.504;8.248;2023-03-20T14:06:57;15.40;55.40
20777;DHT22;10548;47.504;8.248;2023-03-20T14:09:33;15.00;53.60
20777;DHT22;10548;47.504;8.248;2023-03-20T14:12:15;15.00;54.30
20777;DHT22;10548;47.504;8.248;2023-03-20T14:14:52;15.30;57.00
20777;DHT22;10548;47.504;8.248;2023-03-20T14:17:26;16.30;53.50
20777;DHT22;10548;47.504;8.248;2023-03-20T14:19:55;16.60;50.90
20777;DHT22;10548;47.504;8.248;2023-03-20T14:22:26;16.60;52.20
20777;DHT22;10548;47.504;8.248;2023-03-20T14:25:18;15.70;51.30
20777;DHT22;10548;47.504;8.248;2023-03-20T14:28:23;15.50;52.90
20777;DHT22;10548;47.504;8.248;2023-03-20T14:30:46;15.50;55.30
20777;DHT22;10548;47.504;8.248;2023-03-20T14:33:31;15.60;55.30
20777;DHT22;10548;47.504;8.248;2023-03-20T14:36:22;15.40;54.80
20777;DHT22;10548;47.504;8.248;2023-03-20T14:45:24;15.20;51.10
20777;DHT22;10548;47.504;8.248;2023-03-20T14:48:08;14.50;53.20
20777;DHT22;10548;47.504;8.248;2023-03-20T14:53:39;16.00;51.80
20777;DHT22;10548;47.504;8.248;2023-03-20T14:56:11;16.40;49.70
20777;DHT22;10548;47.504;8.248;2023-03-20T14:58:50;16.30;48.90
20777;DHT22;10548;47.504;8.248;2023-03-20T15:01:25;16.20;49.10
20777;DHT22;10548;47.504;8.248;2023-03-20T15:04:08;16.40;49.00
20777;DHT22;10548;47.504;8.248;2023-03-20T15:06:44;16.60;46.70
20777;DHT22;10548;47.504;8.248;2023-03-20T15:09:14;16.00;47.90
20777;DHT22;10548;47.504;8.248;2023-03-20T15:11:42;15.90;49.10
20777;DHT22;10548;47.504;8.248;2023-03-20T15:14:12;15.30;51.10
20777;DHT22;10548;47.504;8.248;2023-03-20T15:16:44;15.30;50.80
20777;DHT22;10548;47.504;8.248;2023-03-20T15:19:16;15.70;50.70
20777;DHT22;10548;47.504;8.248;2023-03-20T15:21:45;16.10;50.00
20777;DHT22;10548;47.504;8.248;2023-03-20T15:24:25;16.30;49.20
20777;DHT22;10548;47.504;8.248;2023-03-20T15:27:00;16.20;50.00
20777;DHT22;10548;47.504;8.248;2023-03-20T15:29:28;16.10;48.40
20777;DHT22;10548;47.504;8.248;2023-03-20T15:31:58;16.00;49.70
20777;DHT22;10548;47.504;8.248;2023-03-20T15:34:40;15.50;50.30
20777;DHT22;10548;47.504;8.248;2023-03-20T15:37:16;14.80;51.20
20777;DHT22;10548;47.504;8.248;2023-03-20T15:39:48;15.00;51.80
20777;DHT22;10548;47.504;8.248;2023-03-20T15:42:19;15.10;52.20
20777;DHT22;10548;47.504;8.248;2023-03-20T15:44:48;15.10;52.40
20777;DHT22;10548;47.504;8.248;2023-03-20T15:47:22;14.80;51.80
20777;DHT22;10548;47.504;8.248;2023-03-20T15:49:55;14.80;53.20
20777;DHT22;10548;47.504;8.248;2023-03-20T15:52:32;14.70;53.30
20777;DHT22;10548;47.504;8.248;2023-03-20T15:55:11;15.00;53.10
20777;DHT22;10548;47.504;8.248;2023-03-20T15:57:41;15.00;53.00
20777;DHT22;10548;47.504;8.248;2023-03-20T16:00:16;15.10;51.90
20777;DHT22;10548;47.504;8.248;2023-03-20T16:02:47;15.50;53.00
20777;DHT22;10548;47.504;8.248;2023-03-20T16:05:15;16.10;51.20
20777;DHT22;10548;47.504;8.248;2023-03-20T16:07:43;16.70;49.70
20777;DHT22;10548;47.504;8.248;2023-03-20T16:10:29;17.20;47.80
20777;DHT22;10548;47.504;8.248;2023-03-20T16:12:56;17.70;46.00
20777;DHT22;10548;47.504;8.248;2023-03-20T16:15:26;17.70;44.00
20777;DHT22;10548;47.504;8.248;2023-03-20T16:17:57;18.00;44.00
20777;DHT22;10548;47.504;8.248;2023-03-20T16:20:29;17.60;44.70
20777;DHT22;10548;47.504;8.248;2023-03-20T16:23:02;17.20;44.40
20777;DHT22;10548;47.504;8.248;2023-03-20T16:25:30;17.00;45.00
20777;DHT22;10548;47.504;8.248;2023-03-20T16:27:57;16.50;44.80
20777;DHT22;10548;47.504;8.248;2023-03-20T16:30:29;16.20;46.30
20777;DHT22;10548;47.504;8.248;2023-03-20T16:33:05;15.80;47.20
20777;DHT22;10548;47.504;8.248;2023-03-20T16:35:53;15.70;48.10
20777;DHT22;10548;47.504;8.248;2023-03-20T16:38:30;16.20;48.90
20777;DHT22;10548;47.504;8.248;2023-03-20T16:41:37;16.60;48.20
20777;DHT22;10548;47.504;8.248;2023-03-20T16:44:13;16.60;47.20
20777;DHT22;10548;47.504;8.248;2023-03-20T16:47:14;16.50;49.50
20777;DHT22;10548;47.504;8.248;2023-03-20T16:52:40;16.60;50.30
20777;DHT22;10548;47.504;8.248;2023-03-20T16:55:16;16.00;51.50
20777;DHT22;10548;47.504;8.248;2023-03-20T16:57:46;15.50;52.60
20777;DHT22;10548;47.504;8.248;2023-03-20T17:00:30;14.90;54.30
20777;DHT22;10548;47.504;8.248;2023-03-20T17:03:05;14.60;55.90
20777;DHT22;10548;47.504;8.248;2023-03-20T17:05:45;14.40;57.20
20777;DHT22;10548;47.504;8.248;2023-03-20T17:08:15;14.20;58.60
20777;DHT22;10548;47.504;8.248;2023-03-20T17:10:48;14.10;58.70
20777;DHT22;10548;47.504;8.248;2023-03-20T17:13:16;14.00;61.10
20777;DHT22;10548;47.504;8.248;2023-03-20T17:15:44;13.80;61.50
20777;DHT22;10548;47.504;8.248;2023-03-20T17:18:12;13.60;63.30
20777;DHT22;10548;47.504;8.248;2023-03-20T17:20:40;13.60;63.60
20777;DHT22;10548;47.504;8.248;2023-03-20T17:23:17;13.50;64.30
20777;DHT22;10548;47.504;8.248;2023-03-20T17:25:45;13.40;66.50
20777;DHT22;10548;47.504;8.248;2023-03-20T17:28:17;13.30;66.70
20777;DHT22;10548;47.504;8.248;2023-03-20T17:30:47;13.10;66.90